createdAt,value
2022-08-04T00:00:45.427Z,20.78
2022-08-04T00:03:20.780Z,20.73
2022-08-04T00:06:00.758Z,20.78
2022-08-04T00:08:40.649Z,20.76
2022-08-04T00:11:15.368Z,20.77
2022-08-04T00:13:58.034Z,20.77
2022-08-04T00:16:37.800Z,20.72
2022-08-04T00:19:11.505Z,20.70
2022-08-04T00:21:47.730Z,20.64
2022-08-04T00:24:17.398Z,20.69
2022-08-04T00:26:45.990Z,20.67
2022-08-04T00:29:14.113Z,20.65
2022-08-04T00:31:57.201Z,20.57
2022-08-04T00:34:27.903Z,20.59
2022-08-04T00:36:58.384Z,20.57
2022-08-04T00:39:27.560Z,20.44
2022-08-04T00:42:24.337Z,20.50
2022-08-04T00:45:08.745Z,20.47
2022-08-04T00:47:49.102Z,20.34
2022-08-04T00:50:26.038Z,20.39
2022-08-04T00:53:07.814Z,20.37
2022-08-04T00:55:58.903Z,20.29
2022-08-04T00:58:40.799Z,20.31
2022-08-04T01:01:17.874Z,20.29
2022-08-04T01:04:04.121Z,20.27
2022-08-04T01:06:56.511Z,20.26
2022-08-04T01:09:45.514Z,20.27
2022-08-04T01:12:37.953Z,20.16
2022-08-04T01:15:08.149Z,20.22
2022-08-04T01:17:48.597Z,20.19
2022-08-04T01:20:22.486Z,20.15
2022-08-04T01:23:46.840Z,20.15
2022-08-04T01:26:57.601Z,20.09
2022-08-04T01:29:38.247Z,20.02
2022-08-04T01:32:26.096Z,20.13
2022-08-04T01:35:01.949Z,20.11
2022-08-04T01:37:43.585Z,20.12
2022-08-04T01:40:15.459Z,20.04
2022-08-04T01:42:46.170Z,20.13
2022-08-04T01:45:15.928Z,20.12
2022-08-04T01:47:50.849Z,20.10
2022-08-04T01:50:19.070Z,19.81
2022-08-04T01:52:50.979Z,20.14
2022-08-04T01:55:19.906Z,20.12
2022-08-04T01:57:50.907Z,20.11
2022-08-04T02:00:22.726Z,19.88
2022-08-04T02:02:52.053Z,20.04
2022-08-04T02:05:22.044Z,20.09
2022-08-04T02:08:06.373Z,20.08
2022-08-04T02:10:50.130Z,20.04
2022-08-04T02:13:24.818Z,19.76
2022-08-04T02:16:02.767Z,20.03
2022-08-04T02:18:33.575Z,20.00
2022-08-04T02:21:02.911Z,19.88
2022-08-04T02:23:36.188Z,19.69
2022-08-04T02:26:06.557Z,19.89
2022-08-04T02:28:44.562Z,19.94
2022-08-04T02:31:28.824Z,19.93
2022-08-04T02:34:07.433Z,19.90
2022-08-04T02:36:38.274Z,19.88
2022-08-04T02:39:07.816Z,19.87
2022-08-04T02:41:37.187Z,19.86
2022-08-04T02:44:07.516Z,19.82
2022-08-04T02:46:39.402Z,19.85
2022-08-04T02:49:09.394Z,19.85
2022-08-04T02:51:39.223Z,19.90
2022-08-04T02:54:08.533Z,19.90
2022-08-04T02:56:38.921Z,19.91
2022-08-04T02:59:10.502Z,19.90
2022-08-04T03:01:58.062Z,19.91
2022-08-04T03:04:52.152Z,19.95
2022-08-04T03:07:57.327Z,19.95
2022-08-04T03:11:18.000Z,19.98
2022-08-04T03:14:22.389Z,19.93
2022-08-04T03:17:17.796Z,19.99
2022-08-04T03:20:09.977Z,19.99
2022-08-04T03:23:13.417Z,20.04
2022-08-04T03:26:13.497Z,20.07
2022-08-04T03:29:12.229Z,20.13
2022-08-04T03:32:13.861Z,20.18
2022-08-04T03:34:59.377Z,20.23
2022-08-04T03:37:48.058Z,20.28
2022-08-04T03:40:35.728Z,20.33
2022-08-04T03:43:58.366Z,20.33
2022-08-04T03:47:13.341Z,20.46
2022-08-04T03:50:10.971Z,20.53
2022-08-04T03:53:10.537Z,20.58
2022-08-04T03:55:49.963Z,20.61
2022-08-04T03:58:41.005Z,20.61
2022-08-04T04:01:22.310Z,20.61
2022-08-04T04:04:16.063Z,20.54
2022-08-04T04:07:06.782Z,20.60
2022-08-04T04:10:06.377Z,20.60
2022-08-04T04:13:11.061Z,20.62
2022-08-04T04:16:00.400Z,20.69
2022-08-04T04:18:59.983Z,20.71
2022-08-04T04:21:50.463Z,20.74
2022-08-04T04:24:34.569Z,20.72
2022-08-04T04:27:16.900Z,20.73
2022-08-04T04:30:04.184Z,20.80
2022-08-04T04:32:45.482Z,20.86
2022-08-04T04:35:24.150Z,20.90
2022-08-04T04:38:14.553Z,20.92
2022-08-04T04:40:57.089Z,20.93
2022-08-04T04:43:52.034Z,20.95
2022-08-04T04:46:33.750Z,20.94
2022-08-04T04:49:12.689Z,20.92
2022-08-04T04:51:49.548Z,20.98
2022-08-04T04:54:27.432Z,20.87
2022-08-04T04:57:04.545Z,20.92
2022-08-04T04:59:35.902Z,20.85
2022-08-04T05:02:29.217Z,20.81
2022-08-04T05:05:24.222Z,20.69
2022-08-04T05:08:45.467Z,20.93
2022-08-04T05:11:35.169Z,20.97
2022-08-04T05:14:39.070Z,20.87
2022-08-04T05:17:03.060Z,20.98
2022-08-04T05:19:44.235Z,21.00
2022-08-04T05:22:23.563Z,20.97
2022-08-04T05:25:01.731Z,20.92
2022-08-04T05:27:40.033Z,20.89
2022-08-04T05:30:09.997Z,20.90
2022-08-04T05:32:46.993Z,20.89
2022-08-04T05:35:37.318Z,20.88
2022-08-04T05:38:15.655Z,20.81
2022-08-04T05:40:45.655Z,20.87
2022-08-04T05:43:16.092Z,20.56
2022-08-04T05:45:48.374Z,20.97
2022-08-04T05:48:17.726Z,21.05
2022-08-04T05:50:47.426Z,21.17
2022-08-04T05:53:19.148Z,21.24
2022-08-04T05:55:59.578Z,21.35
2022-08-04T05:58:30.610Z,21.40
2022-08-04T06:01:00.785Z,21.43
2022-08-04T06:03:30.917Z,21.42
2022-08-04T06:06:00.003Z,21.16
2022-08-04T06:08:30.728Z,21.37
2022-08-04T06:11:03.468Z,21.57
2022-08-04T06:13:48.574Z,21.47
2022-08-04T06:16:29.666Z,21.26
2022-08-04T06:20:03.493Z,21.30
2022-08-04T06:21:51.870Z,21.46
2022-08-04T06:24:26.050Z,21.50
2022-08-04T06:26:55.122Z,21.56
2022-08-04T06:29:28.409Z,21.68
2022-08-04T06:32:29.912Z,21.78
2022-08-04T06:34:53.359Z,21.85
2022-08-04T06:37:41.000Z,21.72
2022-08-04T06:40:29.538Z,22.16
2022-08-04T06:42:59.900Z,22.19
2022-08-04T06:45:28.454Z,22.24
2022-08-04T06:47:58.156Z,22.33
2022-08-04T06:51:24.503Z,22.38
2022-08-04T06:53:15.320Z,22.26
2022-08-04T06:55:47.683Z,22.62
2022-08-04T06:58:17.527Z,22.67
2022-08-04T07:00:48.197Z,22.78
2022-08-04T07:03:19.367Z,22.75
2022-08-04T07:05:48.630Z,22.55
2022-08-04T07:08:17.035Z,22.63
2022-08-04T07:10:47.047Z,22.60
2022-08-04T07:13:16.889Z,22.56
2022-08-04T07:15:46.636Z,22.38
2022-08-04T07:18:14.916Z,22.37
2022-08-04T07:20:44.518Z,22.42
2022-08-04T07:23:17.460Z,22.58
2022-08-04T07:25:59.911Z,22.82
2022-08-04T07:28:40.957Z,23.02
2022-08-04T07:31:31.902Z,23.52
2022-08-04T07:34:21.334Z,24.01
2022-08-04T07:36:53.266Z,24.67
2022-08-04T07:39:28.516Z,25.19
2022-08-04T07:42:01.492Z,25.72
2022-08-04T07:44:31.208Z,26.01
2022-08-04T07:47:00.121Z,26.09
2022-08-04T07:49:55.964Z,26.14
2022-08-04T07:52:17.706Z,26.00
2022-08-04T07:54:46.369Z,26.22
2022-08-04T07:57:20.974Z,26.20
2022-08-04T08:00:08.804Z,25.93
2022-08-04T08:02:38.870Z,26.12
2022-08-04T08:05:09.021Z,26.10
2022-08-04T08:07:37.176Z,26.00
2022-08-04T08:10:19.930Z,26.05
2022-08-04T08:12:52.140Z,26.26
2022-08-04T08:15:21.716Z,26.00
2022-08-04T08:17:59.164Z,25.31
2022-08-04T08:20:30.733Z,24.91
2022-08-04T08:22:59.187Z,24.74
2022-08-04T08:25:27.283Z,25.03
2022-08-04T08:27:56.945Z,25.53
2022-08-04T08:30:31.857Z,25.90
2022-08-04T08:33:03.779Z,25.98
2022-08-04T08:35:54.127Z,26.26
2022-08-04T08:38:39.980Z,25.80
2022-08-04T08:41:34.926Z,25.50
2022-08-04T08:44:51.407Z,25.21
2022-08-04T08:48:06.291Z,25.00
2022-08-04T08:50:45.426Z,25.19
2022-08-04T08:53:29.019Z,25.20
2022-08-04T08:56:15.128Z,25.07
2022-08-04T08:59:00.781Z,25.23
2022-08-04T09:01:54.272Z,25.36
2022-08-04T09:04:57.126Z,25.87
2022-08-04T09:07:51.548Z,25.90
2022-08-04T09:10:27.154Z,25.62
2022-08-04T09:13:03.708Z,25.14
2022-08-04T09:15:37.457Z,25.49
2022-08-04T09:18:14.775Z,25.45
2022-08-04T09:20:49.909Z,25.95
2022-08-04T09:23:25.351Z,26.34
2022-08-04T09:26:07.449Z,26.50
2022-08-04T09:28:54.631Z,26.92
2022-08-04T09:31:51.700Z,27.18
2022-08-04T09:34:27.969Z,27.28
2022-08-04T09:37:06.017Z,27.76
2022-08-04T09:39:41.402Z,28.23
2022-08-04T09:42:26.176Z,28.65
2022-08-04T09:45:06.166Z,29.17
2022-08-04T09:47:48.766Z,28.86
2022-08-04T09:50:31.171Z,28.75
2022-08-04T09:53:14.488Z,28.54
2022-08-04T09:55:56.355Z,28.85
2022-08-04T09:58:40.209Z,28.91
2022-08-04T10:01:11.440Z,29.54
2022-08-04T10:03:42.767Z,29.81
2022-08-04T10:06:36.986Z,29.70
2022-08-04T10:09:18.356Z,29.30
2022-08-04T10:11:56.953Z,29.75
2022-08-04T10:14:41.754Z,29.66
2022-08-04T10:17:24.385Z,29.25
2022-08-04T10:20:04.504Z,29.07
2022-08-04T10:22:55.941Z,29.12
2022-08-04T10:26:05.212Z,29.41
2022-08-04T10:28:33.523Z,29.68
2022-08-04T10:31:08.171Z,29.69
2022-08-04T10:33:43.985Z,29.27
2022-08-04T10:36:17.544Z,28.72
2022-08-04T10:38:57.604Z,28.61
2022-08-04T10:41:31.602Z,28.70
2022-08-04T10:44:10.436Z,28.99
2022-08-04T10:46:44.488Z,29.15
2022-08-04T10:49:24.164Z,29.35
2022-08-04T10:51:57.777Z,28.79
2022-08-04T10:54:34.576Z,28.74
2022-08-04T10:57:08.706Z,28.90
2022-08-04T10:59:44.687Z,29.45
2022-08-04T11:02:27.226Z,29.09
2022-08-04T11:05:18.142Z,28.98
2022-08-04T11:07:51.611Z,28.85
2022-08-04T11:10:25.733Z,28.43
2022-08-04T11:12:59.052Z,28.36
2022-08-04T11:15:32.040Z,28.01
2022-08-04T11:18:06.873Z,27.89
2022-08-04T11:20:53.791Z,27.88
2022-08-04T11:23:28.066Z,27.97
2022-08-04T11:26:02.969Z,27.90
2022-08-04T11:28:44.968Z,27.88
2022-08-04T11:31:19.305Z,27.90
2022-08-04T11:33:56.581Z,28.37
2022-08-04T11:36:33.570Z,28.83
2022-08-04T11:39:08.436Z,28.63
2022-08-04T11:41:48.282Z,28.36
2022-08-04T11:44:27.647Z,28.43
2022-08-04T11:47:00.626Z,28.65
2022-08-04T11:49:57.082Z,29.20
2022-08-04T11:52:25.397Z,28.89
2022-08-04T11:54:54.683Z,29.04
2022-08-04T11:57:35.483Z,28.90
2022-08-04T12:00:10.368Z,29.12
2022-08-04T12:02:52.070Z,29.36
2022-08-04T12:05:36.036Z,29.68
2022-08-04T12:08:21.145Z,29.69
2022-08-04T12:11:10.595Z,29.41
2022-08-04T12:13:47.310Z,29.53
2022-08-04T12:16:19.451Z,29.96
2022-08-04T12:18:53.782Z,29.99
2022-08-04T12:21:29.324Z,29.95
2022-08-04T12:24:02.917Z,30.40
2022-08-04T12:26:38.602Z,30.89
2022-08-04T12:29:11.874Z,31.03
2022-08-04T12:31:46.690Z,31.16
2022-08-04T12:34:18.704Z,30.96
2022-08-04T12:36:55.754Z,30.65
2022-08-04T12:39:27.362Z,30.56
2022-08-04T12:42:02.974Z,30.79
2022-08-04T12:44:38.511Z,31.49
2022-08-04T12:47:27.131Z,32.44
2022-08-04T12:50:02.030Z,32.74
2022-08-04T12:52:59.081Z,32.46
2022-08-04T12:55:22.235Z,32.06
2022-08-04T12:57:52.349Z,31.91
2022-08-04T13:00:34.213Z,32.14
2022-08-04T13:03:10.074Z,31.74
2022-08-04T13:05:40.099Z,31.98
2022-08-04T13:08:09.795Z,31.99
2022-08-04T13:10:40.792Z,31.27
2022-08-04T13:13:16.714Z,31.41
2022-08-04T13:15:57.773Z,32.06
2022-08-04T13:18:30.367Z,32.24
2022-08-04T13:21:19.645Z,32.31
2022-08-04T13:24:09.950Z,32.84
2022-08-04T13:26:55.168Z,33.73
2022-08-04T13:29:59.004Z,34.63
2022-08-04T13:32:26.500Z,34.89
2022-08-04T13:34:57.150Z,34.85
2022-08-04T13:37:27.895Z,34.81
2022-08-04T13:39:57.283Z,35.09
2022-08-04T13:42:28.365Z,35.66
2022-08-04T13:45:00.615Z,35.43
2022-08-04T13:47:33.608Z,35.92
2022-08-04T13:50:16.461Z,35.69
2022-08-04T13:52:45.917Z,35.40
2022-08-04T13:55:23.578Z,34.65
2022-08-04T13:57:56.033Z,33.49
2022-08-04T14:00:29.746Z,34.11
2022-08-04T14:03:23.244Z,33.93
2022-08-04T14:06:10.869Z,33.98
2022-08-04T14:08:48.088Z,34.09
2022-08-04T14:12:10.044Z,34.56
2022-08-04T14:14:15.418Z,33.32
2022-08-04T14:16:57.453Z,32.84
2022-08-04T14:19:31.070Z,32.23
2022-08-04T14:22:04.901Z,31.65
2022-08-04T14:24:33.321Z,31.37
2022-08-04T14:27:01.743Z,31.24
2022-08-04T14:29:38.792Z,30.96
2022-08-04T14:32:14.106Z,30.53
2022-08-04T14:34:46.245Z,30.58
2022-08-04T14:37:19.436Z,30.72
2022-08-04T14:40:19.113Z,31.50
2022-08-04T14:42:55.711Z,32.02
2022-08-04T14:45:35.916Z,32.06
2022-08-04T14:48:08.131Z,32.06
2022-08-04T14:50:40.116Z,31.83
2022-08-04T14:53:11.086Z,31.32
2022-08-04T14:55:41.196Z,30.75
2022-08-04T14:58:36.458Z,30.21
2022-08-04T15:01:09.710Z,29.87
2022-08-04T15:03:49.569Z,29.62
2022-08-04T15:06:23.198Z,29.41
2022-08-04T15:08:52.977Z,29.14
2022-08-04T15:11:23.604Z,28.92
2022-08-04T15:13:52.350Z,28.78
2022-08-04T15:16:20.665Z,28.71
2022-08-04T15:18:49.431Z,28.73
2022-08-04T15:21:18.262Z,28.66
2022-08-04T15:23:47.676Z,28.27
2022-08-04T15:26:18.617Z,28.44
2022-08-04T15:28:51.597Z,28.34
2022-08-04T15:32:07.281Z,28.44
2022-08-04T15:34:11.488Z,29.04
2022-08-04T15:36:56.363Z,29.80
2022-08-04T15:39:37.061Z,31.25
2022-08-04T15:42:21.605Z,32.12
2022-08-04T15:45:20.787Z,32.35
2022-08-04T15:48:26.200Z,32.01
2022-08-04T15:51:28.332Z,31.78
2022-08-04T15:54:32.189Z,31.89
2022-08-04T15:57:03.769Z,31.94
2022-08-04T16:00:15.103Z,32.78
2022-08-04T16:02:44.471Z,32.83
2022-08-04T16:05:36.920Z,32.67
2022-08-04T16:08:13.421Z,32.73
2022-08-04T16:10:43.302Z,32.94
2022-08-04T16:13:15.086Z,32.97
2022-08-04T16:15:47.168Z,32.85
2022-08-04T16:18:26.123Z,32.57
2022-08-04T16:20:58.125Z,32.10
2022-08-04T16:24:02.199Z,31.80
2022-08-04T16:26:55.157Z,31.66
2022-08-04T16:29:40.261Z,31.67
2022-08-04T16:32:13.805Z,31.41
2022-08-04T16:34:49.465Z,31.42
2022-08-04T16:37:24.046Z,31.53
2022-08-04T16:40:28.610Z,31.26
2022-08-04T16:43:04.132Z,30.94
2022-08-04T16:45:51.197Z,30.76
2022-08-04T16:48:20.510Z,30.44
2022-08-04T16:51:04.660Z,30.25
2022-08-04T16:53:53.650Z,30.21
2022-08-04T16:56:32.936Z,29.77
2022-08-04T16:59:07.719Z,29.23
2022-08-04T17:01:38.226Z,28.70
2022-08-04T17:04:07.363Z,28.18
2022-08-04T17:06:37.692Z,27.56
2022-08-04T17:09:07.202Z,27.38
2022-08-04T17:11:35.288Z,27.16
2022-08-04T17:14:05.776Z,26.99
2022-08-04T17:16:38.391Z,26.85
2022-08-04T17:19:24.153Z,26.69
2022-08-04T17:22:02.184Z,26.48
2022-08-04T17:24:31.469Z,26.45
2022-08-04T17:27:00.178Z,26.37
2022-08-04T17:29:42.209Z,26.51
2022-08-04T17:32:18.799Z,26.45
2022-08-04T17:34:50.522Z,26.13
2022-08-04T17:37:38.181Z,26.22
2022-08-04T17:40:12.178Z,25.70
2022-08-04T17:42:42.036Z,25.98
2022-08-04T17:48:03.573Z,25.91
2022-08-04T17:50:36.013Z,25.81
2022-08-04T17:53:11.577Z,25.78
2022-08-04T17:55:40.971Z,25.70
2022-08-04T17:58:24.135Z,25.43
2022-08-04T18:01:23.109Z,25.39
2022-08-04T18:03:58.254Z,25.26
2022-08-04T18:06:26.358Z,25.18
2022-08-04T18:08:58.967Z,25.16
2022-08-04T18:11:53.674Z,24.92
2022-08-04T18:14:25.878Z,24.99
2022-08-04T18:16:56.699Z,24.88
2022-08-04T18:19:26.142Z,24.84
2022-08-04T18:22:01.013Z,24.78
2022-08-04T18:24:34.637Z,24.69
2022-08-04T18:27:19.310Z,24.61
2022-08-04T18:30:14.539Z,24.58
2022-08-04T18:32:36.351Z,24.52
2022-08-04T18:35:07.251Z,24.51
2022-08-04T18:38:05.865Z,24.46
2022-08-04T18:40:30.231Z,24.42
2022-08-04T18:43:03.651Z,24.40
2022-08-04T18:48:20.985Z,24.34
2022-08-04T18:51:09.487Z,24.31
2022-08-04T18:53:38.617Z,24.25
2022-08-04T18:56:19.922Z,24.23
2022-08-04T18:58:57.442Z,24.21
2022-08-04T19:01:29.613Z,24.12
2022-08-04T19:03:58.566Z,24.13
2022-08-04T19:06:28.309Z,24.12
2022-08-04T19:08:58.047Z,24.03
2022-08-04T19:11:37.904Z,24.09
2022-08-04T19:14:14.753Z,24.06
2022-08-04T19:16:46.135Z,24.01
2022-08-04T19:19:15.717Z,23.98
2022-08-04T19:22:00.918Z,23.82
2022-08-04T19:24:34.326Z,23.97
2022-08-04T19:29:52.763Z,23.97
2022-08-04T19:32:22.490Z,23.93
2022-08-04T19:34:52.139Z,23.91
2022-08-04T19:37:58.501Z,23.85
2022-08-04T19:40:12.968Z,23.86
2022-08-04T19:42:42.473Z,23.82
2022-08-04T19:45:15.906Z,23.74
2022-08-04T19:48:18.297Z,23.74
2022-08-04T19:50:32.346Z,23.69
2022-08-04T19:53:04.172Z,23.31
2022-08-04T19:55:49.708Z,22.98
2022-08-04T19:58:21.521Z,23.47
2022-08-04T20:00:53.861Z,23.46
2022-08-04T20:04:08.403Z,23.52
2022-08-04T20:06:11.792Z,23.51
2022-08-04T20:08:48.313Z,23.15
2022-08-04T20:11:17.362Z,23.46
2022-08-04T20:13:54.630Z,23.45
2022-08-04T20:16:30.003Z,23.44
2022-08-04T20:19:03.269Z,23.42
2022-08-04T20:21:55.641Z,23.14
2022-08-04T20:24:36.912Z,23.38
2022-08-04T20:27:21.697Z,23.04
2022-08-04T20:29:51.689Z,23.31
2022-08-04T20:32:26.002Z,23.25
2022-08-04T20:34:55.916Z,23.22
2022-08-04T20:37:25.975Z,23.21
2022-08-04T20:40:15.414Z,23.19
2022-08-04T20:42:44.986Z,23.14
2022-08-04T20:45:16.241Z,23.15
2022-08-04T20:47:53.307Z,23.14
2022-08-04T20:50:29.798Z,23.12
2022-08-04T20:52:58.708Z,23.10
2022-08-04T20:55:29.866Z,22.95
2022-08-04T20:58:02.566Z,23.05
2022-08-04T21:00:31.929Z,23.00
2022-08-04T21:03:00.291Z,22.43
2022-08-04T21:05:28.427Z,22.92
2022-08-04T21:07:57.626Z,22.89
2022-08-04T21:10:27.388Z,22.86
2022-08-04T21:12:55.826Z,22.82
2022-08-04T21:15:50.839Z,22.80
2022-08-04T21:18:14.659Z,22.75
2022-08-04T21:20:48.232Z,22.73
2022-08-04T21:25:49.846Z,22.54
2022-08-04T21:31:11.089Z,22.44
2022-08-04T21:33:52.181Z,22.43
2022-08-04T21:36:20.718Z,22.39
2022-08-04T21:38:51.490Z,22.21
2022-08-04T21:41:25.237Z,22.28
2022-08-04T21:43:55.739Z,22.25
2022-08-04T21:46:24.346Z,22.24
2022-08-04T21:48:52.506Z,22.20
2022-08-04T21:51:58.011Z,22.17
2022-08-04T21:54:16.855Z,22.16
2022-08-04T21:56:50.721Z,22.02
2022-08-04T21:59:23.774Z,22.13
2022-08-04T22:01:56.535Z,21.77
2022-08-04T22:04:24.928Z,21.83
2022-08-04T22:06:53.043Z,21.99
2022-08-04T22:09:22.378Z,21.63
2022-08-04T22:11:52.465Z,21.92
2022-08-04T22:14:29.427Z,21.91
2022-08-04T22:17:02.643Z,21.90
2022-08-04T22:19:50.298Z,21.90
2022-08-04T22:22:26.274Z,21.90
2022-08-04T22:24:58.882Z,21.87
2022-08-04T22:27:47.916Z,21.87
2022-08-04T22:30:23.952Z,21.54
2022-08-04T22:32:52.033Z,21.78
2022-08-04T22:35:42.892Z,21.76
2022-08-04T22:38:25.306Z,21.70
2022-08-04T22:40:59.716Z,21.63
2022-08-04T22:43:33.676Z,21.51
2022-08-04T22:46:05.383Z,21.57
2022-08-04T22:48:35.433Z,21.59
2022-08-04T22:51:03.931Z,21.62
2022-08-04T22:53:32.489Z,21.63
2022-08-04T22:56:10.291Z,21.64
2022-08-04T22:58:45.509Z,21.61
2022-08-04T23:01:19.412Z,21.55
2022-08-04T23:03:55.467Z,21.51
2022-08-04T23:06:25.685Z,21.49
2022-08-04T23:08:59.447Z,21.43
2022-08-04T23:11:34.397Z,21.37
2022-08-04T23:14:05.493Z,21.42
2022-08-04T23:16:40.814Z,21.26
2022-08-04T23:19:15.203Z,21.37
2022-08-04T23:21:47.288Z,21.29
2022-08-04T23:24:16.001Z,21.28
2022-08-04T23:26:44.133Z,21.28
2022-08-04T23:29:13.926Z,21.27
2022-08-04T23:31:59.099Z,21.27
2022-08-04T23:34:29.108Z,21.23
2022-08-04T23:36:59.273Z,21.22
2022-08-04T23:40:03.756Z,21.23
2022-08-04T23:42:21.012Z,20.93
2022-08-04T23:44:50.958Z,21.08
2022-08-04T23:48:16.563Z,21.09
2022-08-04T23:50:08.477Z,21.11
2022-08-04T23:52:37.298Z,21.11
2022-08-04T23:55:07.598Z,20.94
2022-08-04T23:58:06.503Z,20.95
